createdAt,value
2018-07-04T00:02:20.765Z,17.50
2018-07-04T00:04:59.177Z,17.40
2018-07-04T00:07:36.877Z,17.40
2018-07-04T00:10:14.888Z,17.30
2018-07-04T00:12:52.596Z,17.30
2018-07-04T00:15:29.756Z,17.30
2018-07-04T00:18:08.371Z,17.30
2018-07-04T00:20:45.834Z,17.30
2018-07-04T00:23:23.927Z,17.30
2018-07-04T00:26:02.257Z,17.30
2018-07-04T00:28:40.220Z,17.20
2018-07-04T00:31:18.087Z,17.10
2018-07-04T00:33:57.028Z,17.10
2018-07-04T00:36:36.302Z,17.00
2018-07-04T00:39:13.989Z,16.90
2018-07-04T00:41:52.011Z,16.70
2018-07-04T00:44:29.782Z,16.70
2018-07-04T00:47:07.704Z,16.60
2018-07-04T00:52:19.418Z,16.40
2018-07-04T00:54:56.667Z,16.40
2018-07-04T00:57:35.233Z,16.40
2018-07-04T01:00:15.454Z,16.50
2018-07-04T01:02:53.222Z,16.50
2018-07-04T01:05:30.924Z,16.60
2018-07-04T01:08:08.237Z,16.50
2018-07-04T01:10:45.643Z,16.50
2018-07-04T01:13:22.862Z,16.40
2018-07-04T01:16:00.058Z,16.30
2018-07-04T01:18:38.016Z,16.30
2018-07-04T01:21:16.045Z,16.20
2018-07-04T01:23:54.877Z,16.20
2018-07-04T01:26:32.564Z,16.20
2018-07-04T01:29:12.463Z,16.20
2018-07-04T01:31:51.399Z,16.10
2018-07-04T01:34:29.757Z,16.00
2018-07-04T01:37:09.372Z,16.00
2018-07-04T01:39:47.385Z,15.90
2018-07-04T01:42:25.263Z,15.90
2018-07-04T01:45:03.541Z,16.00
2018-07-04T01:47:40.934Z,16.00
2018-07-04T01:50:18.118Z,16.00
2018-07-04T01:52:57.886Z,16.00
2018-07-04T01:55:35.046Z,16.00
2018-07-04T01:58:12.991Z,16.10
2018-07-04T02:00:50.953Z,16.10
2018-07-04T02:03:28.670Z,16.00
2018-07-04T02:06:06.261Z,15.90
2018-07-04T02:08:44.463Z,15.90
2018-07-04T02:11:22.886Z,16.00
2018-07-04T02:14:00.291Z,16.00
2018-07-04T02:16:38.009Z,16.00
2018-07-04T02:19:15.917Z,15.90
2018-07-04T02:21:53.554Z,15.80
2018-07-04T02:24:31.765Z,15.70
2018-07-04T02:27:09.156Z,15.70
2018-07-04T02:29:46.323Z,15.80
2018-07-04T02:34:59.538Z,16.00
2018-07-04T02:37:36.963Z,16.00
2018-07-04T02:40:14.253Z,16.00
2018-07-04T02:42:51.866Z,16.00
2018-07-04T02:45:29.545Z,15.90
2018-07-04T02:48:07.173Z,15.80
2018-07-04T02:50:44.549Z,15.80
2018-07-04T02:53:22.641Z,15.70
2018-07-04T02:55:59.789Z,15.70
2018-07-04T02:58:39.456Z,15.60
2018-07-04T03:01:17.577Z,15.60
2018-07-04T03:03:55.763Z,15.60
2018-07-04T03:06:34.229Z,15.60
2018-07-04T03:09:12.234Z,15.60
2018-07-04T03:11:49.780Z,15.60
2018-07-04T03:14:27.144Z,15.60
2018-07-04T03:17:04.372Z,15.70
2018-07-04T03:19:42.952Z,15.60
2018-07-04T03:22:20.903Z,15.60
2018-07-04T03:25:01.132Z,15.50
2018-07-04T03:27:38.582Z,15.50
2018-07-04T03:30:16.331Z,15.50
2018-07-04T03:32:53.736Z,15.60
2018-07-04T03:35:34.067Z,15.70
2018-07-04T03:38:11.514Z,15.80
2018-07-04T03:43:21.164Z,16.00
2018-07-04T03:45:58.327Z,16.10
2018-07-04T03:48:35.583Z,16.20
2018-07-04T03:51:12.998Z,16.30
2018-07-04T03:53:50.391Z,16.40
2018-07-04T03:56:27.633Z,16.60
2018-07-04T03:59:04.852Z,16.80
2018-07-04T04:01:42.021Z,17.00
2018-07-04T04:04:19.158Z,17.30
2018-07-04T04:06:56.352Z,17.50
2018-07-04T04:09:33.694Z,17.50
2018-07-04T04:12:10.885Z,17.50
2018-07-04T04:14:48.065Z,17.60
2018-07-04T04:17:25.285Z,17.80
2018-07-04T04:20:02.513Z,17.90
2018-07-04T04:22:39.705Z,17.80
2018-07-04T04:25:16.996Z,17.80
2018-07-04T04:27:54.249Z,17.70
2018-07-04T04:30:31.741Z,17.70
2018-07-04T04:33:09.134Z,17.70
2018-07-04T04:35:46.747Z,17.70
2018-07-04T04:38:23.963Z,18.10
2018-07-04T04:41:01.943Z,18.60
2018-07-04T04:43:39.140Z,18.90
2018-07-04T04:46:16.518Z,19.10
2018-07-04T04:48:54.514Z,19.20
2018-07-04T04:51:31.944Z,19.50
2018-07-04T04:54:09.130Z,19.50
2018-07-04T04:56:46.450Z,18.90
2018-07-04T04:59:23.876Z,18.90
2018-07-04T05:02:01.910Z,19.30
2018-07-04T05:04:39.066Z,19.20
2018-07-04T05:07:17.041Z,18.80
2018-07-04T05:09:54.290Z,18.60
2018-07-04T05:12:31.478Z,18.40
2018-07-04T05:15:08.723Z,18.40
2018-07-04T05:17:45.861Z,18.40
2018-07-04T05:20:23.005Z,18.40
2018-07-04T05:25:32.682Z,18.70
2018-07-04T05:28:09.950Z,18.70
2018-07-04T05:30:47.328Z,18.70
2018-07-04T05:33:24.837Z,18.80
2018-07-04T05:36:02.095Z,18.80
2018-07-04T05:38:39.312Z,18.80
2018-07-04T05:41:16.466Z,18.90
2018-07-04T05:43:53.761Z,19.10
2018-07-04T05:46:30.927Z,19.20
2018-07-04T05:49:08.176Z,19.30
2018-07-04T05:51:45.375Z,19.40
2018-07-04T05:54:22.795Z,19.60
2018-07-04T05:57:00.332Z,19.90
2018-07-04T05:59:37.690Z,20.10
2018-07-04T06:02:15.239Z,19.60
2018-07-04T06:04:52.458Z,19.50
2018-07-04T06:07:29.720Z,19.70
2018-07-04T06:10:07.135Z,19.90
2018-07-04T06:12:44.933Z,20.10
2018-07-04T06:15:22.143Z,20.20
2018-07-04T06:17:59.471Z,20.40
2018-07-04T06:20:36.697Z,20.50
2018-07-04T06:23:13.992Z,20.60
2018-07-04T06:25:52.016Z,20.60
2018-07-04T06:28:29.314Z,20.70
2018-07-04T06:31:06.969Z,20.90
2018-07-04T06:33:45.600Z,21.10
2018-07-04T06:36:23.184Z,21.20
2018-07-04T06:38:50.532Z,21.10
2018-07-04T06:41:17.954Z,20.90
2018-07-04T06:43:46.078Z,20.90
2018-07-04T06:46:13.621Z,20.80
2018-07-04T06:48:41.474Z,20.90
2018-07-04T06:51:08.923Z,21.00
2018-07-04T06:53:36.786Z,21.00
2018-07-04T06:56:04.172Z,21.50
2018-07-04T06:58:31.734Z,21.90
2018-07-04T07:01:00.634Z,21.80
2018-07-04T07:03:37.873Z,21.60
2018-07-04T07:06:15.871Z,21.70
2018-07-04T07:08:53.127Z,21.70
2018-07-04T07:11:30.344Z,21.90
2018-07-04T07:14:07.905Z,22.10
2018-07-04T07:16:45.577Z,22.20
2018-07-04T07:19:22.766Z,22.20
2018-07-04T07:22:00.034Z,22.20
2018-07-04T07:24:37.315Z,22.10
2018-07-04T07:27:09.852Z,22.20
2018-07-04T07:29:48.169Z,22.20
2018-07-04T07:32:26.194Z,22.40
2018-07-04T07:35:03.759Z,22.40
2018-07-04T07:37:41.287Z,22.90
2018-07-04T07:40:18.819Z,23.60
2018-07-04T07:42:57.056Z,24.60
2018-07-04T07:45:34.473Z,25.40
2018-07-04T07:48:12.172Z,26.50
2018-07-04T07:50:49.560Z,27.80
2018-07-04T07:53:27.739Z,28.60
2018-07-04T07:56:04.960Z,28.10
2018-07-04T07:58:43.010Z,28.30
2018-07-04T08:01:20.244Z,29.00
2018-07-04T08:03:58.371Z,29.40
2018-07-04T08:06:35.633Z,29.80
2018-07-04T08:09:13.088Z,29.40
2018-07-04T08:11:50.425Z,29.00
2018-07-04T08:14:27.607Z,29.10
2018-07-04T08:17:05.071Z,29.70
2018-07-04T08:19:42.320Z,29.90
2018-07-04T08:22:19.745Z,30.40
2018-07-04T08:24:56.966Z,30.20
2018-07-04T08:27:34.424Z,30.80
2018-07-04T08:30:11.784Z,29.30
2018-07-04T08:32:49.214Z,29.10
2018-07-04T08:35:26.566Z,29.60
2018-07-04T08:38:03.879Z,30.70
2018-07-04T08:40:41.068Z,31.20
2018-07-04T08:43:19.451Z,31.90
2018-07-04T08:45:56.830Z,31.80
2018-07-04T08:48:35.147Z,30.60
2018-07-04T08:51:12.393Z,30.30
2018-07-04T08:53:49.615Z,30.90
2018-07-04T08:56:26.901Z,31.00
2018-07-04T08:59:05.071Z,31.20
2018-07-04T09:01:42.346Z,31.50
2018-07-04T09:04:19.612Z,32.10
2018-07-04T09:06:57.749Z,32.10
2018-07-04T09:09:35.063Z,31.70
2018-07-04T09:12:12.333Z,30.90
2018-07-04T09:14:49.757Z,30.30
2018-07-04T09:17:27.017Z,30.60
2018-07-04T09:20:04.648Z,31.20
2018-07-04T09:22:42.038Z,31.40
2018-07-04T09:25:19.370Z,32.20
2018-07-04T09:27:56.605Z,33.20
2018-07-04T09:30:34.296Z,33.50
2018-07-04T09:33:12.169Z,32.80
2018-07-04T09:35:49.700Z,32.10
2018-07-04T09:38:27.151Z,31.40
2018-07-04T09:41:04.440Z,32.00
2018-07-04T09:43:41.829Z,32.30
2018-07-04T09:46:19.163Z,32.80
2018-07-04T09:48:56.391Z,32.50
2018-07-04T09:51:33.814Z,31.80
2018-07-04T09:54:11.107Z,32.50
2018-07-04T09:56:48.321Z,32.60
2018-07-04T09:59:25.761Z,33.60
2018-07-04T10:02:05.155Z,34.90
2018-07-04T10:04:42.278Z,34.80
2018-07-04T10:07:19.549Z,34.00
2018-07-04T10:09:57.858Z,33.20
2018-07-04T10:12:35.959Z,33.70
2018-07-04T10:15:13.215Z,33.70
2018-07-04T10:17:50.721Z,33.40
2018-07-04T10:20:28.259Z,32.30
2018-07-04T10:23:05.995Z,32.50
2018-07-04T10:25:45.636Z,33.50
2018-07-04T10:28:23.057Z,33.90
2018-07-04T10:31:01.330Z,33.70
2018-07-04T10:33:39.099Z,34.00
2018-07-04T10:36:16.590Z,34.80
2018-07-04T10:38:53.916Z,35.40
2018-07-04T10:41:31.188Z,34.90
2018-07-04T10:44:08.422Z,34.50
2018-07-04T10:46:45.766Z,35.10
2018-07-04T10:49:23.400Z,34.60
2018-07-04T10:52:00.684Z,35.10
2018-07-04T10:54:38.922Z,35.30
2018-07-04T10:57:16.114Z,34.90
2018-07-04T10:59:53.373Z,35.70
2018-07-04T11:02:30.572Z,35.10
2018-07-04T11:05:07.839Z,35.60
2018-07-04T11:07:45.883Z,35.80
2018-07-04T11:10:25.376Z,35.80
2018-07-04T11:13:03.992Z,35.30
2018-07-04T11:15:41.313Z,34.90
2018-07-04T11:18:19.299Z,34.00
2018-07-04T11:20:58.422Z,32.90
2018-07-04T11:23:35.541Z,33.50
2018-07-04T11:26:13.644Z,34.30
2018-07-04T11:28:51.048Z,34.80
2018-07-04T11:31:29.220Z,35.00
2018-07-04T11:34:06.650Z,35.30
2018-07-04T11:36:44.057Z,36.20
2018-07-04T11:39:21.910Z,36.50
2018-07-04T11:41:59.073Z,36.00
2018-07-04T11:44:36.611Z,36.20
2018-07-04T11:47:03.954Z,35.60
2018-07-04T11:49:32.731Z,35.80
2018-07-04T11:52:00.527Z,36.40
2018-07-04T11:54:27.789Z,35.60
2018-07-04T11:56:56.506Z,36.20
2018-07-04T11:59:23.858Z,36.40
2018-07-04T12:01:51.381Z,36.10
2018-07-04T12:04:29.095Z,35.80
2018-07-04T12:07:04.255Z,36.20
2018-07-04T12:09:33.639Z,37.10
2018-07-04T12:12:02.713Z,36.90
2018-07-04T12:14:35.778Z,36.20
2018-07-04T12:17:03.549Z,36.10
2018-07-04T12:19:31.210Z,36.30
2018-07-04T12:21:58.901Z,36.20
2018-07-04T12:24:26.201Z,36.40
2018-07-04T12:26:54.368Z,36.40
2018-07-04T12:29:22.500Z,37.00
2018-07-04T12:31:50.230Z,35.70
2018-07-04T12:34:17.902Z,35.30
2018-07-04T12:36:50.814Z,35.10
2018-07-04T12:39:18.909Z,35.60
2018-07-04T12:41:46.475Z,36.10
2018-07-04T12:44:15.302Z,36.70
2018-07-04T12:46:42.613Z,37.20
2018-07-04T12:49:10.510Z,37.50
2018-07-04T12:51:37.995Z,37.70
2018-07-04T12:54:10.582Z,37.30
2018-07-04T12:56:49.362Z,36.60
2018-07-04T12:59:27.655Z,36.00
2018-07-04T13:02:05.481Z,35.60
2018-07-04T13:04:43.165Z,35.30
2018-07-04T13:07:20.993Z,34.90
2018-07-04T13:09:58.533Z,33.90
2018-07-04T13:12:35.851Z,33.50
2018-07-04T13:15:13.719Z,33.40
2018-07-04T13:17:51.320Z,33.10
2018-07-04T13:20:29.863Z,32.90
2018-07-04T13:23:08.179Z,33.10
2018-07-04T13:25:46.484Z,32.90
2018-07-04T13:28:23.757Z,32.80
2018-07-04T13:31:01.243Z,32.40
2018-07-04T13:33:39.370Z,32.10
2018-07-04T13:36:16.731Z,31.90
2018-07-04T13:38:54.745Z,31.70
2018-07-04T13:41:32.167Z,31.80
2018-07-04T13:44:10.249Z,31.60
2018-07-04T13:46:47.492Z,31.40
2018-07-04T13:49:24.960Z,31.30
2018-07-04T13:52:05.243Z,31.10
2018-07-04T13:54:42.597Z,30.90
2018-07-04T13:57:20.360Z,30.80
2018-07-04T13:59:57.983Z,30.80
2018-07-04T14:02:35.846Z,30.70
2018-07-04T14:05:13.048Z,30.60
2018-07-04T14:07:50.432Z,30.50
2018-07-04T14:10:27.808Z,30.60
2018-07-04T14:13:05.172Z,30.50
2018-07-04T14:15:43.552Z,30.70
2018-07-04T14:18:21.005Z,30.80
2018-07-04T14:20:58.335Z,30.40
2018-07-04T14:23:35.596Z,30.30
2018-07-04T14:26:14.620Z,30.30
2018-07-04T14:28:52.025Z,30.20
2018-07-04T14:31:29.407Z,30.20
2018-07-04T14:34:06.859Z,30.10
2018-07-04T14:36:44.370Z,30.00
2018-07-04T14:39:21.689Z,29.90
2018-07-04T14:41:59.021Z,29.90
2018-07-04T14:44:36.606Z,30.00
2018-07-04T14:47:13.966Z,30.20
2018-07-04T14:49:51.434Z,30.00
2018-07-04T14:52:28.880Z,29.90
2018-07-04T14:55:06.349Z,29.70
2018-07-04T14:57:44.339Z,29.60
2018-07-04T15:00:21.568Z,29.60
2018-07-04T15:02:59.167Z,29.70
2018-07-04T15:05:36.455Z,29.70
2018-07-04T15:08:13.722Z,29.70
2018-07-04T15:10:51.012Z,29.70
2018-07-04T15:13:28.342Z,29.70
2018-07-04T15:16:05.601Z,29.60
2018-07-04T15:18:43.001Z,29.60
2018-07-04T15:21:20.341Z,29.70
2018-07-04T15:23:57.762Z,29.80
2018-07-04T15:26:36.910Z,29.80
2018-07-04T15:29:14.283Z,29.90
2018-07-04T15:31:51.956Z,30.10
2018-07-04T15:34:30.409Z,30.30
2018-07-04T15:37:07.931Z,30.50
2018-07-04T15:39:45.250Z,30.40
2018-07-04T15:42:23.532Z,30.40
2018-07-04T15:45:00.850Z,30.70
2018-07-04T15:47:38.167Z,31.00
2018-07-04T15:50:15.526Z,31.30
2018-07-04T15:52:53.146Z,31.10
2018-07-04T15:55:31.128Z,30.90
2018-07-04T15:58:08.317Z,30.70
2018-07-04T16:00:46.082Z,30.60
2018-07-04T16:03:23.429Z,30.70
2018-07-04T16:06:01.264Z,30.80
2018-07-04T16:08:38.773Z,30.80
2018-07-04T16:11:16.108Z,30.80
2018-07-04T16:13:53.433Z,30.70
2018-07-04T16:16:31.081Z,30.70
2018-07-04T16:19:08.811Z,30.60
2018-07-04T16:21:46.094Z,30.60
2018-07-04T16:24:24.482Z,30.70
2018-07-04T16:27:01.983Z,30.50
2018-07-04T16:29:39.816Z,30.30
2018-07-04T16:32:17.767Z,30.00
2018-07-04T16:34:55.090Z,30.00
2018-07-04T16:37:33.231Z,30.20
2018-07-04T16:40:10.747Z,30.30
2018-07-04T16:42:48.696Z,30.30
2018-07-04T16:45:26.018Z,30.10
2018-07-04T16:48:04.009Z,30.00
2018-07-04T16:50:41.380Z,29.90
2018-07-04T16:53:18.855Z,29.90
2018-07-04T16:55:56.227Z,29.70
2018-07-04T16:58:33.671Z,29.60
2018-07-04T17:01:11.547Z,29.60
2018-07-04T17:03:48.829Z,29.50
2018-07-04T17:06:27.155Z,29.30
2018-07-04T17:09:04.849Z,29.10
2018-07-04T17:11:42.988Z,28.80
2018-07-04T17:14:20.272Z,28.80
2018-07-04T17:16:59.624Z,28.80
2018-07-04T17:19:38.557Z,28.90
2018-07-04T17:24:48.850Z,28.80
2018-07-04T17:27:25.966Z,28.70
2018-07-04T17:30:03.549Z,28.70
2018-07-04T17:32:41.284Z,28.50
2018-07-04T17:37:51.091Z,28.50
2018-07-04T17:40:28.563Z,28.50
2018-07-04T17:43:06.755Z,28.40
2018-07-04T17:45:44.158Z,28.40
2018-07-04T17:48:24.125Z,28.40
2018-07-04T17:51:01.677Z,28.30
2018-07-04T17:53:40.328Z,28.20
2018-07-04T17:56:18.380Z,28.10
2018-07-04T17:58:55.978Z,28.00
2018-07-04T18:01:33.927Z,27.90
2018-07-04T18:04:11.112Z,27.90
2018-07-04T18:06:48.709Z,27.90
2018-07-04T18:09:25.984Z,27.90
2018-07-04T18:12:03.302Z,27.80
2018-07-04T18:14:40.890Z,27.70
2018-07-04T18:19:50.783Z,27.60
2018-07-04T18:22:31.243Z,27.60
2018-07-04T18:25:12.218Z,27.50
2018-07-04T18:27:49.493Z,27.50
2018-07-04T18:30:27.781Z,27.40
2018-07-04T18:33:06.262Z,27.20
2018-07-04T18:35:43.562Z,27.10
2018-07-04T18:38:21.083Z,27.00
2018-07-04T18:40:58.332Z,26.90
2018-07-04T18:43:36.217Z,26.80
2018-07-04T18:46:14.067Z,26.60
2018-07-04T18:48:51.274Z,26.50
2018-07-04T18:51:28.686Z,26.40
2018-07-04T18:54:06.011Z,26.30
2018-07-04T18:56:44.103Z,26.20
2018-07-04T18:59:21.849Z,26.10
2018-07-04T19:01:59.494Z,26.00
2018-07-04T19:04:37.447Z,25.90
2018-07-04T19:07:15.920Z,25.80
2018-07-04T19:09:53.233Z,25.70
2018-07-04T19:12:31.498Z,25.70
2018-07-04T19:15:09.040Z,25.60
2018-07-04T19:17:47.164Z,25.50
2018-07-04T19:20:24.411Z,25.40
2018-07-04T19:23:02.916Z,25.40
2018-07-04T19:25:40.301Z,25.30
2018-07-04T19:28:17.805Z,25.20
2018-07-04T19:30:55.195Z,25.10
2018-07-04T19:33:32.656Z,25.00
2018-07-04T19:36:10.230Z,24.90
2018-07-04T19:38:48.157Z,24.80
2018-07-04T19:41:25.447Z,24.80
2018-07-04T19:44:03.191Z,24.90
2018-07-04T19:46:40.464Z,24.80
2018-07-04T19:49:17.719Z,24.70
2018-07-04T19:51:54.962Z,24.70
2018-07-04T19:54:32.166Z,24.60
2018-07-04T19:57:09.551Z,24.50
2018-07-04T19:59:47.566Z,24.40
2018-07-04T20:02:24.887Z,24.30
2018-07-04T20:05:02.063Z,24.20
2018-07-04T20:07:39.314Z,24.20
2018-07-04T20:10:16.649Z,24.10
2018-07-04T20:12:53.846Z,24.00
2018-07-04T20:15:31.299Z,23.90
2018-07-04T20:18:08.629Z,23.80
2018-07-04T20:20:45.818Z,23.80
2018-07-04T20:23:23.063Z,23.70
2018-07-04T20:26:00.314Z,23.70
2018-07-04T20:28:37.537Z,23.60
2018-07-04T20:31:14.887Z,23.50
2018-07-04T20:33:54.001Z,23.50
2018-07-04T20:36:31.249Z,23.40
2018-07-04T20:39:08.552Z,23.40
2018-07-04T20:41:46.394Z,23.30
2018-07-04T20:44:23.660Z,23.30
2018-07-04T20:49:33.632Z,23.10
2018-07-04T20:52:11.036Z,23.00
2018-07-04T20:54:48.259Z,22.90
2018-07-04T20:57:25.719Z,22.90
2018-07-04T21:00:02.927Z,22.80
2018-07-04T21:02:40.099Z,22.70
2018-07-04T21:05:17.299Z,22.60
2018-07-04T21:07:54.771Z,22.60
2018-07-04T21:10:32.927Z,22.70
2018-07-04T21:13:10.124Z,22.60
2018-07-04T21:15:47.313Z,22.50
2018-07-04T21:18:24.706Z,22.40
2018-07-04T21:21:02.037Z,22.30
2018-07-04T21:23:39.227Z,22.20
2018-07-04T21:26:16.396Z,22.10
2018-07-04T21:28:53.697Z,22.10
2018-07-04T21:31:31.256Z,22.10
2018-07-04T21:34:09.226Z,22.10
2018-07-04T21:36:46.571Z,22.10
2018-07-04T21:39:24.959Z,22.10
2018-07-04T21:42:02.113Z,22.20
2018-07-04T21:47:11.864Z,22.10
2018-07-04T21:49:49.551Z,22.00
2018-07-04T21:52:26.778Z,22.00
2018-07-04T21:55:04.323Z,22.00
2018-07-04T21:57:42.503Z,21.90
2018-07-04T22:00:22.281Z,21.90
2018-07-04T22:05:33.176Z,21.70
2018-07-04T22:10:43.848Z,21.60
2018-07-04T22:13:21.026Z,21.70
2018-07-04T22:15:58.215Z,21.80
2018-07-04T22:18:35.633Z,21.90
2018-07-04T22:21:12.899Z,21.90
2018-07-04T22:23:50.939Z,21.80
2018-07-04T22:26:28.420Z,21.80
2018-07-04T22:29:06.138Z,21.80
2018-07-04T22:31:44.757Z,21.70
2018-07-04T22:34:22.575Z,21.70
2018-07-04T22:37:02.358Z,21.60
2018-07-04T22:39:39.837Z,21.60
2018-07-04T22:42:17.164Z,21.40
2018-07-04T22:44:54.647Z,21.40
2018-07-04T22:50:04.764Z,21.40
2018-07-04T22:52:42.235Z,21.30
2018-07-04T22:55:21.094Z,21.30
2018-07-04T22:57:58.679Z,21.30
2018-07-04T23:00:36.048Z,21.30
2018-07-04T23:03:13.422Z,21.20
2018-07-04T23:05:51.792Z,21.20
2018-07-04T23:08:28.960Z,21.10
2018-07-04T23:11:07.200Z,21.00
2018-07-04T23:13:45.125Z,21.00
2018-07-04T23:16:22.377Z,20.80
2018-07-04T23:18:59.664Z,20.70
2018-07-04T23:21:37.611Z,20.60
2018-07-04T23:24:15.299Z,20.60
2018-07-04T23:26:54.672Z,20.70
2018-07-04T23:29:32.113Z,20.70
2018-07-04T23:32:09.493Z,20.70
2018-07-04T23:34:47.292Z,20.60
2018-07-04T23:37:24.756Z,20.60
2018-07-04T23:42:34.569Z,20.40
2018-07-04T23:45:11.768Z,20.30
2018-07-04T23:47:49.429Z,20.30
2018-07-04T23:50:27.618Z,20.20
2018-07-04T23:53:05.169Z,20.10
2018-07-04T23:55:42.471Z,20.10
2018-07-04T23:58:20.412Z,20.30
